Flight Track Log - Related Links

Times and Time Zones

All times are in EDT time to prevent confusion due to time zone crossing. See the UAL1635 flight status page for this flight to view local times or setup timezone preferences in your user account.

Time Position Orientation Groundspeed Altitude Reporting Facility
EDT Latitude Longitude Course Direction KTS MPH feet Rate Location/Type
Tue 02:21:42 PM 37.6930 -122.2960 44° Northeast 251 289 3,000  Level FlightAware ADS-B
Tue 02:22:12 PM 37.7180 -122.2630 46° Northeast 265 305 4,300 2,800 Climbing FlightAware ADS-B
Tue 02:22:27 PM 37.7330 -122.2460 42° Northeast 269 310 5,100 2,850 Climbing FlightAware ADS-B
Tue 02:22:52 PM 37.7530 -122.2180 48° Northeast 275 316 6,200 3,000 Climbing FlightAware ADS-B
Tue 02:23:07 PM 37.7610 -122.1940 67° East 273 314 7,100 3,200 Climbing FlightAware ADS-B
Tue 02:23:22 PM 37.7660 -122.1730 73° East 272 313 7,800 2,850 Climbing FlightAware ADS-B
Tue 02:23:47 PM 37.7760 -122.1340 72° East 277 319 9,000 2,229 Climbing FlightAware ADS-B
Tue 02:24:32 PM 37.7950 -122.0630 71° East 309 356 10,400 1,624 Climbing FlightAware ADS-B
Tue 02:25:12 PM 37.8150 -121.9900 71° East 345 397 11,300 1,976 Climbing FlightAware ADS-B
Tue 02:25:57 PM 37.8390 -121.8980 72° East 359 413 13,200 2,753 Climbing FlightAware ADS-B
Tue 02:26:37 PM 37.8610 -121.8180 71° East 358 412 15,200 2,475 Climbing FlightAware ADS-B
Tue 02:27:17 PM 37.8810 -121.7420 72° East 370 426 16,500 2,047 Climbing FlightAware ADS-B
Tue 02:28:02 PM 37.9070 -121.6450 71° East 380 437 18,100 2,118 Climbing FlightAware ADS-B
Tue 02:28:42 PM 37.9300 -121.5580 71° East 387 445 19,500 2,047 Climbing FlightAware ADS-B
Tue 02:29:27 PM 37.9550 -121.4630 72° East 394 453 21,000 1,906 Climbing FlightAware ADS-B
Tue 02:30:07 PM 37.9780 -121.3750 72° East 401 461 22,200 1,800 Climbing FlightAware ADS-B
Tue 02:30:47 PM 38.0020 -121.2850 71° East 404 465 23,400 1,835 Climbing FlightAware ADS-B
Tue 02:31:32 PM 38.0290 -121.1810 72° East 406 467 24,800 1,694 Climbing FlightAware ADS-B
Tue 02:32:12 PM 38.0520 -121.0920 72° East 410 472 25,800 1,425 Climbing FlightAware ADS-B
Tue 02:32:52 PM 38.0760 -120.9990 72° East 416 479 26,700 1,412 Climbing FlightAware ADS-B
Tue 02:33:37 PM 38.1010 -120.8940 73° East 418 481 27,800 1,482 Climbing FlightAware ADS-B
Tue 02:34:17 PM 38.1230 -120.8030 73° East 415 478 28,800 1,694 Climbing FlightAware ADS-B
Tue 02:35:02 PM 38.1490 -120.6970 73° East 406 467 30,200 1,553 Climbing FlightAware ADS-B
Tue 02:35:42 PM 38.1700 -120.6060 74° East 407 468 31,000 988 Climbing FlightAware ADS-B
Tue 02:36:27 PM 38.1950 -120.5040 73° East 414 476 31,600 706 Climbing FlightAware ADS-B
Tue 02:37:07 PM 38.2150 -120.4180 73° East 418 481 32,000 764 Climbing FlightAware ADS-B
Tue 02:38:17 PM 38.2560 -120.2470 73° East 425 489 33,000 850 Climbing FlightAware ADS-B
Tue 02:39:07 PM 38.2850 -120.1220 73° East 427 491 33,700 780 Climbing FlightAware ADS-B
Tue 02:39:57 PM 38.3140 -119.9990 73° East 430 495 34,300 733 Climbing FlightAware ADS-B
Tue 02:40:37 PM 38.3350 -119.9050 74° East 431 496 34,800 560 Climbing FlightAware ADS-B
Tue 02:41:12 PM 38.3550 -119.8180 74° East 435 501 35,000 150 Climbing FlightAware ADS-B
Tue 02:41:57 PM 38.3790 -119.7200 73° East 435 501 35,000  Level FlightAware ADS-B
Tue 02:42:37 PM 38.3990 -119.6360 73° East 435 501 35,000  Level FlightAware ADS-B
Tue 02:43:17 PM 38.4190 -119.5530 73° East 435 501 35,000  Level FlightAware ADS-B
Tue 02:44:07 PM 38.4440 -119.4480 73° East 435 501 35,000  Level FlightAware ADS-B
Tue 02:44:52 PM 38.4810 -119.2700 75° East 447 514 35,000  Level FlightAware ADS-B
Tue 02:45:27 PM 38.4990 -119.1930 73° East 447 514 35,000  Level FlightAware ADS-B
Tue 02:46:07 PM 38.5200 -119.1070 73° East 447 514 35,000  Level FlightAware ADS-B
Tue 02:46:57 PM 38.5450 -118.9990 73° East 447 514 35,000  Level FlightAware ADS-B
Tue 02:47:37 PM 38.5660 -118.9130 73° East 447 514 35,000  Level FlightAware ADS-B
Tue 02:48:17 PM 38.5870 -118.8270 73° East 447 514 35,000  Level FlightAware ADS-B
Tue 02:48:57 PM 38.6070 -118.7410 73° East 447 514 35,000  Level FlightAware ADS-B
Tue 02:49:37 PM 38.6280 -118.6550 73° East 447 514 35,000  Level FlightAware ADS-B
Tue 02:50:27 PM 38.6530 -118.5480 73° East 447 514 35,000  Level FlightAware ADS-B
Tue 02:51:07 PM 38.6740 -118.4610 73° East 447 514 35,000  Level FlightAware ADS-B
Tue 02:51:47 PM 38.6940 -118.3750 73° East 447 514 35,000  Level FlightAware ADS-B
Tue 02:52:27 PM 38.7150 -118.2890 73° East 447 514 35,000  Level FlightAware ADS-B
Tue 02:53:07 PM 38.7350 -118.2030 73° East 447 514 35,000  Level FlightAware ADS-B
Tue 02:53:57 PM 38.7610 -118.0950 73° East 447 514 35,000  Level FlightAware ADS-B
Tue 02:54:37 PM 38.7820 -118.0090 73° East 447 514 35,000  Level FlightAware ADS-B
Tue 02:55:05 PM 38.6464 -117.6761 73° East 445 512 35,000  Level Salt Lake Center
Tue 02:55:52 PM 38.6575 -117.5489 84° East 447 514 35,000  Level Oakland Center
Tue 02:56:53 PM 38.6714 -117.3928 83° East 441 507 35,000  Level Oakland Center
Tue 02:57:08 PM 38.6733 -117.3614 85° East 442 509 35,000  Level Salt Lake Center
Tue 02:58:09 PM 38.6919 -117.2053 81° East 441 507 35,000  Level Salt Lake Center
Tue 02:59:11 PM 38.7161 -117.0508 79° East 440 506 35,000  Level Salt Lake Center
Tue 02:59:56 PM 38.7347 -116.9253 79° East 444 511 35,000  Level Oakland Center
Tue 03:00:57 PM 38.7575 -116.7683 79° East 445 512 35,000  Level Oakland Center
Tue 03:01:14 PM 38.7653 -116.7056 81° East 446 513 35,000  Level Salt Lake Center
Tue 03:01:58 PM 38.7803 -116.6106 79° East 448 516 35,000  Level Oakland Center
Tue 03:03:00 PM 38.8036 -116.4525 79° East 450 518 35,000  Level Oakland Center
Tue 03:04:01 PM 38.8261 -116.2939 80° East 452 520 35,000  Level Oakland Center
Tue 03:04:19 PM 38.8350 -116.2311 80° East 451 519 35,000  Level Salt Lake Center
Tue 03:05:20 PM 38.8564 -116.0722 80° East 452 520 35,000  Level Salt Lake Center
Tue 03:06:22 PM 38.8789 -115.9142 80° East 450 518 35,000  Level Salt Lake Center
Tue 03:07:24 PM 38.9008 -115.7550 80° East 453 521 35,000  Level Salt Lake Center
Tue 03:08:25 PM 38.9228 -115.5967 80° East 450 518 35,000  Level Salt Lake Center
Tue 03:09:27 PM 38.9444 -115.4381 80° East 453 521 35,000  Level Salt Lake Center
Tue 03:10:28 PM 38.9692 -115.2647 80° East 462 532 35,000  Level Salt Lake Center
Tue 03:11:30 PM 38.9886 -115.1053 81° East 455 524 35,000  Level Salt Lake Center
Tue 03:12:32 PM 39.0111 -114.9428 80° East 459 528 35,000  Level Salt Lake Center
Tue 03:13:33 PM 39.0364 -114.7467 81° East 463 533 35,000  Level Salt Lake Center
Tue 03:14:35 PM 39.0581 -114.5858 80° East 458 527 35,000  Level Salt Lake Center
Tue 03:15:36 PM 39.0786 -114.4236 81° East 459 528 35,000  Level Salt Lake Center
Tue 03:16:38 PM 39.0989 -114.2625 81° East 457 526 35,000  Level Salt Lake Center
Tue 03:17:39 PM 39.1186 -114.1028 81° East 454 522 35,000  Level Salt Lake Center
Tue 03:18:41 PM 39.1369 -113.9406 82° East 457 526 35,000  Level Salt Lake Center
Tue 03:19:42 PM 39.1567 -113.7806 81° East 455 524 35,000  Level Salt Lake Center
Tue 03:20:44 PM 39.1764 -113.6203 81° East 453 521 35,000  Level Salt Lake Center
Tue 03:21:46 PM 39.1986 -113.4292 81° East 450 518 35,000  Level Salt Lake Center
Tue 03:22:47 PM 39.2172 -113.2708 81° East 447 514 35,000  Level Salt Lake Center
Tue 03:23:49 PM 39.2353 -113.1097 82° East 451 519 35,000  Level Salt Lake Center
Tue 03:24:50 PM 39.2531 -112.9481 82° East 454 522 35,000  Level Salt Lake Center
Tue 03:25:52 PM 39.2717 -112.7869 81° East 455 524 35,000  Level Salt Lake Center
Tue 03:26:54 PM 39.2911 -112.6117 82° East 457 526 35,000  Level Salt Lake Center
Tue 03:27:55 PM 39.3125 -112.4497 80° East 459 528 35,000  Level Salt Lake Center
Tue 03:28:57 PM 39.3436 -112.2892 76° East 462 532 35,000  Level Salt Lake Center
Tue 03:34:57 PM 39.5210 -111.3130 76° East 459 528 35,000  Level FlightAware ADS-B
Tue 03:35:32 PM 39.5370 -111.2190 78° East 459 528 35,000  Level FlightAware ADS-B
Tue 03:36:22 PM 39.5600 -111.0890 77° East 459 528 35,000  Level FlightAware ADS-B
Tue 03:37:02 PM 39.5780 -110.9830 78° East 457 526 35,000  Level FlightAware ADS-B
Tue 03:37:37 PM 39.5940 -110.8920 77° East 455 524 35,000  Level FlightAware ADS-B
Tue 03:38:57 PM 39.6310 -110.6760 77° East 453 521 35,000  Level FlightAware ADS-B
Tue 03:39:37 PM 39.6500 -110.5670 77° East 454 522 35,000  Level FlightAware ADS-B
Tue 03:40:17 PM 39.6680 -110.4620 77° East 455 524 35,000  Level FlightAware ADS-B
Tue 03:41:02 PM 39.6890 -110.3380 78° East 457 526 35,000  Level FlightAware ADS-B
Tue 03:41:42 PM 39.7060 -110.2330 78° East 457 526 35,000  Level FlightAware ADS-B
Tue 03:42:27 PM 39.7320 -110.1120 74° East 461 531 35,000  Level FlightAware ADS-B
Tue 03:43:52 PM 39.7910 -109.8940 71° East 466 536 35,000  Level FlightAware ADS-B
Tue 03:44:32 PM 39.8200 -109.7880 70° East 467 537 35,000  Level FlightAware ADS-B
Tue 03:45:12 PM 39.8400 -109.6840 76° East 466 536 35,000  Level FlightAware ADS-B
Tue 03:45:57 PM 39.8580 -109.5540 80° East 466 536 35,000  Level FlightAware ADS-B
Tue 03:46:37 PM 39.8710 -109.4470 81° East 466 536 35,000  Level FlightAware ADS-B
Tue 03:47:22 PM 39.8880 -109.3140 81° East 468 539 35,000  Level FlightAware ADS-B
Tue 03:48:02 PM 39.9040 -109.2050 79° East 468 539 35,000  Level FlightAware ADS-B
Tue 03:48:37 PM 39.9130 -109.1170 82° East 469 540 35,000  Level FlightAware ADS-B
Tue 03:49:27 PM 39.9250 -108.9750 84° East 470 541 35,000  Level FlightAware ADS-B
Tue 03:50:07 PM 39.9330 -108.8660 84° East 472 543 35,000  Level FlightAware ADS-B
Tue 03:50:52 PM 39.9420 -108.7320 85° East 473 544 35,000  Level FlightAware ADS-B
Tue 03:51:32 PM 39.9500 -108.6200 85° East 473 544 35,000  Level FlightAware ADS-B
Tue 03:52:17 PM 39.9680 -108.4890 80° East 471 542 35,000  Level FlightAware ADS-B
Tue 03:52:52 PM 39.9860 -108.3950 76° East 471 542 35,000  Level FlightAware ADS-B
Tue 03:55:07 PM 40.0510 -108.0350 77° East 474 545 35,000  Level FlightAware ADS-B
Tue 03:55:47 PM 40.0720 -107.9190 77° East 472 543 35,000  Level FlightAware ADS-B
Tue 03:56:12 PM 40.0860 -107.8420 77° East 470 541 35,000  Level FlightAware ADS-B
Tue 03:56:57 PM 40.1080 -107.7160 77° East 467 537 35,000  Level FlightAware ADS-B
Tue 03:57:37 PM 40.1280 -107.6080 76° East 467 537 35,000  Level FlightAware ADS-B
Tue 03:58:17 PM 40.1480 -107.4940 77° East 467 537 35,000  Level FlightAware ADS-B
Tue 03:59:02 PM 40.1690 -107.3720 77° East 467 537 35,000  Level FlightAware ADS-B
Tue 03:59:42 PM 40.1880 -107.2630 77° East 465 535 35,000  Level FlightAware ADS-B
Tue 04:00:27 PM 40.2090 -107.1430 77° East 459 528 35,000  Level FlightAware ADS-B
Tue 04:01:07 PM 40.2280 -107.0330 77° East 454 522 35,000  Level FlightAware ADS-B
Tue 04:01:47 PM 40.2460 -106.9290 77° East 455 524 35,000  Level FlightAware ADS-B
Tue 04:02:32 PM 40.2670 -106.8100 77° East 453 521 35,000  Level FlightAware ADS-B
Tue 04:03:12 PM 40.2840 -106.7100 77° East 453 521 35,000  Level FlightAware ADS-B
Tue 04:03:57 PM 40.3060 -106.5780 78° East 453 521 35,000  Level FlightAware ADS-B
Tue 04:04:37 PM 40.3230 -106.4760 78° East 454 522 35,000  Level FlightAware ADS-B
Tue 04:05:17 PM 40.3420 -106.3610 78° East 456 525 35,000  Level FlightAware ADS-B
Tue 04:06:02 PM 40.3610 -106.2440 78° East 456 525 35,000  Level FlightAware ADS-B
Tue 04:06:42 PM 40.3790 -106.1390 77° East 457 526 35,000  Level FlightAware ADS-B
Tue 04:07:27 PM 40.3990 -106.0130 78° East 456 525 35,000  Level FlightAware ADS-B
Tue 04:08:07 PM 40.4170 -105.9050 78° East 457 526 35,000  Level FlightAware ADS-B
Tue 04:08:47 PM 40.4350 -105.7930 78° East 457 526 35,000  Level FlightAware ADS-B
Tue 04:09:27 PM 40.4520 -105.6860 78° East 458 527 35,000  Level FlightAware ADS-B
Tue 04:10:17 PM 40.4740 -105.5520 78° East 459 528 35,000  Level FlightAware ADS-B
Tue 04:10:57 PM 40.4910 -105.4430 78° East 459 528 35,000  Level FlightAware ADS-B
Tue 04:11:27 PM 40.5047 -105.3540 79° East 459 528 35,000  Level FlightAware ADS-B
Tue 04:11:59 PM 40.5182 -105.2670 78° East 456 525 35,000  Level FlightAware ADS-B
Tue 04:12:31 PM 40.5313 -105.1820 79° East 451 519 35,000  Level FlightAware ADS-B
Tue 04:13:01 PM 40.5438 -105.1010 78° East 448 516 35,000  Level FlightAware ADS-B
Tue 04:13:31 PM 40.5562 -105.0200 79° East 448 516 35,000  Level FlightAware ADS-B
Tue 04:14:01 PM 40.5685 -104.9400 79° East 448 516 35,000  Level FlightAware ADS-B
Tue 04:14:44 PM 40.5859 -104.8260 79° East 448 516 35,000  Level FlightAware ADS-B
Tue 04:15:15 PM 40.5983 -104.7450 79° East 447 514 35,000  Level FlightAware ADS-B
Tue 04:15:47 PM 40.6111 -104.6590 79° East 445 512 35,000  Level FlightAware ADS-B
Tue 04:16:17 PM 40.6232 -104.5790 79° East 444 511 35,000  Level FlightAware ADS-B
Tue 04:16:48 PM 40.6351 -104.4980 79° East 444 511 35,000  Level FlightAware ADS-B
Tue 04:17:18 PM 40.6469 -104.4190 79° East 443 510 35,000  Level FlightAware ADS-B
Tue 04:17:49 PM 40.6590 -104.3370 79° East 443 510 35,000  Level FlightAware ADS-B
Tue 04:18:19 PM 40.6709 -104.2560 79° East 443 510 35,000  Level FlightAware ADS-B
Tue 04:18:50 PM 40.6827 -104.1750 79° East 445 512 35,000  Level FlightAware ADS-B
Tue 04:19:20 PM 40.6944 -104.0940 79° East 447 514 35,000  Level FlightAware ADS-B
Tue 04:19:50 PM 40.7061 -104.0140 79° East 448 516 35,000  Level FlightAware ADS-B
Tue 04:20:21 PM 40.7179 -103.9320 79° East 449 517 35,000  Level FlightAware ADS-B
Tue 04:20:51 PM 40.7297 -103.8510 79° East 451 519 35,000  Level FlightAware ADS-B
Tue 04:21:22 PM 40.7412 -103.7680 80° East 454 522 35,000  Level FlightAware ADS-B
Tue 04:21:53 PM 40.7531 -103.6830 80° East 458 527 35,000  Level FlightAware ADS-B
Tue 04:22:23 PM 40.7650 -103.5990 79° East 459 528 35,000  Level FlightAware ADS-B
Tue 04:22:54 PM 40.7768 -103.5150 79° East 462 532 35,000  Level FlightAware ADS-B
Tue 04:23:24 PM 40.7886 -103.4310 79° East 463 533 35,000  Level FlightAware ADS-B
Tue 04:23:55 PM 40.8003 -103.3470 80° East 464 534 35,000  Level FlightAware ADS-B
Tue 04:24:26 PM 40.8122 -103.2600 80° East 468 539 35,000  Level FlightAware ADS-B
Tue 04:24:57 PM 40.8240 -103.1740 80° East 469 540 35,000  Level FlightAware ADS-B
Tue 04:25:27 PM 40.8356 -103.0890 80° East 471 542 35,000  Level FlightAware ADS-B
Tue 04:26:09 PM 40.8516 -102.9690 80° East 471 542 35,000  Level FlightAware ADS-B
Tue 04:26:40 PM 40.8630 -102.8840 80° East 467 537 35,000  Level FlightAware ADS-B
Tue 04:27:11 PM 40.8746 -102.7970 80° East 467 537 35,000  Level FlightAware ADS-B
Tue 04:27:42 PM 40.8862 -102.7100 80° East 468 539 35,000  Level FlightAware ADS-B
Tue 04:28:17 PM 40.8994 -102.6100 80° East 470 541 35,000  Level FlightAware ADS-B
Tue 04:28:48 PM 40.9109 -102.5220 80° East 471 542 35,000  Level FlightAware ADS-B
Tue 04:29:22 PM 40.9235 -102.4260 80° East 472 543 35,000  Level FlightAware ADS-B
Tue 04:29:53 PM 40.9348 -102.3390 80° East 474 545 35,000  Level FlightAware ADS-B
Tue 04:30:23 PM 40.9458 -102.2530 80° East 474 545 35,000  Level FlightAware ADS-B
Tue 04:30:54 PM 40.9569 -102.1650 80° East 474 545 35,000  Level FlightAware ADS-B
Tue 04:31:25 PM 40.9680 -102.0760 81° East 475 547 35,000  Level FlightAware ADS-B
Tue 04:31:57 PM 40.9797 -101.9840 80° East 476 548 35,000  Level FlightAware ADS-B
Tue 04:32:28 PM 40.9907 -101.8960 81° East 475 547 35,000  Level FlightAware ADS-B
Tue 04:34:09 PM 41.0265 -101.6070 81° East 473 544 35,000  Level FlightAware ADS-B
Tue 04:34:41 PM 41.0375 -101.5160 81° East 473 544 35,000  Level FlightAware ADS-B
Tue 04:35:06 PM 41.0389 -101.5067 81° East 474 545 35,000  Level Denver Center
Tue 04:36:08 PM 41.0650 -101.2875 81° East 472 543 35,000  Level Denver Center
Tue 04:37:09 PM 41.0844 -101.1222 81° East 472 543 35,000  Level Denver Center
Tue 04:38:10 PM 41.1044 -100.9558 81° East 472 543 35,000  Level Denver Center
Tue 04:39:13 PM 41.1281 -100.7608 81° East 474 545 35,000  Level Denver Center
Tue 04:40:14 PM 41.1522 -100.5942 79° East 476 548 35,000  Level Denver Center
Tue 04:41:16 PM 41.2050 -100.4094 69° East 477 549 35,000  Level Denver Center
Tue 04:42:17 PM 41.2489 -100.2506 70° East 478 550 35,000  Level Denver Center
Tue 04:43:19 PM 41.3014 -100.0669 69° East 476 548 35,000  Level Denver Center
Tue 04:44:21 PM 41.3472 -99.9089 69° East 477 549 35,000  Level Denver Center
Tue 04:45:22 PM 41.3939 -99.7481 69° East 477 549 35,000  Level Denver Center
Tue 04:46:24 PM 41.4428 -99.5844 68° East 474 545 35,000  Level Denver Center
Tue 04:47:26 PM 41.4919 -99.4206 68° East 473 544 35,000  Level Denver Center
Tue 04:48:27 PM 41.5492 -99.2222 69° East 473 544 35,000  Level Denver Center
Tue 04:49:29 PM 41.5872 -99.0519 73° East 473 544 35,000  Level Denver Center
Tue 04:49:44 PM 41.5947 -99.0186 73° East 473 544 35,000  Level Minneapolis Center
Tue 04:50:46 PM 41.6261 -98.8461 76° East 475 547 35,000  Level Minneapolis Center
Tue 04:52:00 PM 41.6244 -98.6694 91° East 471 542 35,000  Level Minneapolis Center
Tue 04:53:02 PM 41.6206 -98.4581 91° East 470 541 35,000  Level Minneapolis Center
Tue 04:54:16 PM 41.6169 -98.2817 92° East 472 543 35,000  Level Minneapolis Center
Tue 04:55:19 PM 41.6125 -98.0517 91° East 472 543 35,000  Level Minneapolis Center
Tue 04:56:21 PM 41.6081 -97.8756 92° East 473 544 35,000  Level Minneapolis Center
Tue 04:57:23 PM 41.6053 -97.6994 91° East 474 545 35,000  Level Minneapolis Center
Tue 04:58:25 PM 41.6011 -97.5244 92° East 473 544 35,000  Level Minneapolis Center
Tue 04:59:27 PM 41.5964 -97.3150 92° East 471 542 35,000  Level Minneapolis Center
Tue 05:00:29 PM 41.5900 -97.1419 93° East 468 539 35,000  Level Minneapolis Center
Tue 05:01:31 PM 41.5850 -96.9700 92° East 465 535 35,000  Level Minneapolis Center
Tue 05:02:34 PM 41.5800 -96.7986 92° East 463 533 35,000  Level Minneapolis Center
Tue 05:03:36 PM 41.5736 -96.6269 93° East 464 534 35,000  Level Minneapolis Center
Tue 05:04:38 PM 41.5681 -96.4553 92° East 462 532 35,000  Level Minneapolis Center
Tue 05:05:40 PM 41.5603 -96.2636 93° East 467 537 35,000  Level Minneapolis Center
Tue 05:06:42 PM 41.5536 -96.0922 93° East 464 534 35,000  Level Minneapolis Center
Tue 05:07:44 PM 41.5486 -95.9217 92° East 460 529 35,000  Level Minneapolis Center
Tue 05:08:46 PM 41.5417 -95.7483 93° East 465 535 35,000  Level Minneapolis Center
Tue 05:14:52 PM 41.4940 -94.6800 93° East 467 537 35,000  Level FlightAware ADS-B
Tue 05:15:32 PM 41.4900 -94.5820 93° East 467 537 35,000  Level FlightAware ADS-B
Tue 05:16:12 PM 41.4870 -94.4840 92° East 467 537 35,000  Level FlightAware ADS-B
Tue 05:17:07 PM 41.4740 -94.2970 95° East 465 535 35,000  Level FlightAware ADS-B
Tue 05:17:52 PM 41.4670 -94.1670 94° East 464 534 35,000  Level FlightAware ADS-B
Tue 05:18:32 PM 41.4610 -94.0520 94° East 464 534 35,000  Level FlightAware ADS-B
Tue 05:19:17 PM 41.4530 -93.9230 95° East 465 535 35,000  Level FlightAware ADS-B
Tue 05:19:57 PM 41.4470 -93.8080 94° East 465 535 35,000  Level FlightAware ADS-B
Tue 05:20:47 PM 41.4390 -93.6720 94° East 466 536 35,000  Level FlightAware ADS-B
Tue 05:21:37 PM 41.4500 -93.5240 84° East 466 536 35,000  Level FlightAware ADS-B
Tue 05:22:17 PM 41.4610 -93.4060 83° East 467 537 35,000  Level FlightAware ADS-B
Tue 05:22:57 PM 41.4720 -93.2920 83° East 466 536 35,000  Level FlightAware ADS-B
Tue 05:23:42 PM 41.4840 -93.1610 83° East 461 531 35,000  Level FlightAware ADS-B
Tue 05:24:22 PM 41.4950 -93.0500 82° East 456 525 35,000  Level FlightAware ADS-B
Tue 05:25:07 PM 41.5060 -92.9270 83° East 452 520 35,000  Level FlightAware ADS-B
Tue 05:25:47 PM 41.5160 -92.8150 83° East 452 520 35,000  Level FlightAware ADS-B
Tue 05:26:27 PM 41.5260 -92.7050 83° East 452 520 35,000  Level FlightAware ADS-B
Tue 05:27:12 PM 41.5370 -92.5840 83° East 453 521 35,000  Level FlightAware ADS-B
Tue 05:27:52 PM 41.5470 -92.4740 83° East 453 521 35,000  Level FlightAware ADS-B
Tue 05:28:47 PM 41.5600 -92.3270 83° East 454 522 35,000  Level FlightAware ADS-B
Tue 05:29:32 PM 41.5710 -92.2000 83° East 453 521 35,000  Level FlightAware ADS-B
Tue 05:30:27 PM 41.5840 -92.0440 84° East 453 521 35,000  Level FlightAware ADS-B
Tue 05:32:17 PM 41.6080 -91.7460 84° East 450 518 35,000  Level FlightAware ADS-B
Tue 05:33:02 PM 41.6180 -91.6210 84° East 450 518 35,000  Level FlightAware ADS-B
Tue 05:33:42 PM 41.6270 -91.5140 84° East 449 517 35,000  Level FlightAware ADS-B
Tue 05:34:27 PM 41.6370 -91.3840 84° East 448 516 35,000  Level FlightAware ADS-B
Tue 05:35:07 PM 41.6450 -91.2770 84° East 448 516 35,000  Level FlightAware ADS-B
Tue 05:35:47 PM 41.6530 -91.1770 84° East 449 517 35,000  Level FlightAware ADS-B
Tue 05:36:42 PM 41.6650 -91.0200 84° East 451 519 35,000  Level FlightAware ADS-B
Tue 05:37:27 PM 41.6750 -90.8880 84° East 452 520 35,000  Level FlightAware ADS-B
Tue 05:38:07 PM 41.6830 -90.7770 84° East 453 521 35,000  Level FlightAware ADS-B
Tue 05:38:52 PM 41.6920 -90.6480 85° East 449 517 35,000  Level FlightAware ADS-B
Tue 05:39:32 PM 41.7000 -90.5310 85° East 446 513 35,000  Level FlightAware ADS-B
Tue 05:40:17 PM 41.7090 -90.4120 84° East 445 512 35,000  Level FlightAware ADS-B
Tue 05:40:57 PM 41.7170 -90.3000 84° East 445 512 35,000  Level FlightAware ADS-B
Tue 05:41:37 PM 41.7240 -90.1950 85° East 444 511 35,000  Level FlightAware ADS-B
Tue 05:42:22 PM 41.7320 -90.0690 85° East 441 507 35,000  Level FlightAware ADS-B
Tue 05:43:02 PM 41.7390 -89.9590 85° East 438 504 35,000  Level FlightAware ADS-B
Tue 05:43:47 PM 41.7470 -89.8410 85° East 436 502 35,000  Level FlightAware ADS-B
Tue 05:44:27 PM 41.7540 -89.7350 85° East 435 501 35,000  Level FlightAware ADS-B
Tue 05:45:12 PM 41.7610 -89.6150 85° East 433 498 35,000  Level FlightAware ADS-B
Tue 05:45:52 PM 41.7680 -89.5040 85° East 433 498 35,000  Level FlightAware ADS-B
Tue 05:46:32 PM 41.7750 -89.4020 85° East 432 497 35,000  Level FlightAware ADS-B
Tue 05:47:17 PM 41.7820 -89.2810 86° East 431 496 35,000  Level FlightAware ADS-B
Tue 05:47:57 PM 41.7880 -89.1750 86° East 430 495 35,000  Level FlightAware ADS-B
Tue 05:48:42 PM 41.7950 -89.0520 86° East 431 496 35,000  Level FlightAware ADS-B
Tue 05:49:22 PM 41.8010 -88.9520 85° East 431 496 35,000  Level FlightAware ADS-B
Tue 05:50:02 PM 41.8070 -88.8440 86° East 431 496 35,000  Level FlightAware ADS-B
Tue 05:50:47 PM 41.8130 -88.7250 86° East 431 496 35,000  Level FlightAware ADS-B
Tue 05:51:27 PM 41.8190 -88.6160 86° East 427 491 35,000  Level FlightAware ADS-B
Tue 05:52:12 PM 41.8250 -88.5050 86° East 425 489 35,000  Level FlightAware ADS-B
Tue 05:52:57 PM 41.8320 -88.3830 86° East 424 488 35,000  Level FlightAware ADS-B
Tue 05:53:37 PM 41.8370 -88.2760 86° East 422 486 35,000  Level FlightAware ADS-B
Tue 05:54:17 PM 41.8420 -88.1710 86° East 421 484 35,000  Level FlightAware ADS-B
Tue 05:55:02 PM 41.8480 -88.0580 86° East 421 484 35,000  Level FlightAware ADS-B
Tue 05:55:42 PM 41.8530 -87.9520 86° East 420 483 35,000  Level FlightAware ADS-B
Tue 05:56:22 PM 41.8580 -87.8490 86° East 419 482 35,000  Level FlightAware ADS-B
Tue 05:57:07 PM 41.8630 -87.7420 86° East 419 482 35,000  Level FlightAware ADS-B
Tue 05:57:47 PM 41.8680 -87.6260 87° East 419 482 35,000  Level FlightAware ADS-B
Tue 05:58:32 PM 41.8730 -87.5130 87° East 420 483 35,000  Level FlightAware ADS-B
Tue 05:59:07 PM 41.8770 -87.4180 87° East 421 484 35,000  Level FlightAware ADS-B
Tue 05:59:52 PM 41.8820 -87.3020 87° East 422 486 35,000  Level FlightAware ADS-B
Tue 06:00:37 PM 41.8870 -87.1850 87° East 424 488 35,000  Level FlightAware ADS-B
Tue 06:01:17 PM 41.8920 -87.0800 86° East 425 489 35,000  Level FlightAware ADS-B
Tue 06:01:57 PM 41.8960 -86.9770 87° East 425 489 35,000  Level FlightAware ADS-B
Tue 06:02:42 PM 41.9000 -86.8570 87° East 424 488 35,000  Level FlightAware ADS-B
Tue 06:03:22 PM 41.9040 -86.7520 87° East 423 487 35,000  Level FlightAware ADS-B
Tue 06:03:52 PM 41.9070 -86.6760 87° East 422 486 35,000  Level FlightAware ADS-B
Tue 06:04:32 PM 41.9110 -86.5690 87° East 420 483 35,000  Level FlightAware ADS-B
Tue 06:05:17 PM 41.9150 -86.4510 87° East 418 481 35,000  Level FlightAware ADS-B
Tue 06:05:57 PM 41.9190 -86.3480 87° East 417 480 35,000  Level FlightAware ADS-B
Tue 06:06:42 PM 41.9220 -86.2370 88° East 417 480 35,000  Level FlightAware ADS-B
Tue 06:07:12 PM 41.9250 -86.1540 87° East 416 479 35,000  Level FlightAware ADS-B
Tue 06:08:02 PM 41.9290 -86.0240 88° East 415 478 35,000  Level FlightAware ADS-B
Tue 06:08:47 PM 41.9330 -85.9090 87° East 415 478 35,000  Level FlightAware ADS-B
Tue 06:09:27 PM 41.9350 -85.8160 88° East 415 478 35,000  Level FlightAware ADS-B
Tue 06:10:17 PM 41.9390 -85.6850 88° East 413 475 35,000  Level FlightAware ADS-B
Tue 06:11:02 PM 41.9420 -85.5660 88° East 412 474 35,000  Level FlightAware ADS-B
Tue 06:11:47 PM 41.9460 -85.4490 87° East 412 474 35,000  Level FlightAware ADS-B
Tue 06:12:32 PM 41.9480 -85.3400 89° East 414 476 35,000  Level FlightAware ADS-B
Tue 06:13:02 PM 41.9500 -85.2600 88° East 415 478 35,000  Level FlightAware ADS-B
Tue 06:13:47 PM 41.9530 -85.1550 88° East 415 478 35,000  Level FlightAware ADS-B
Tue 06:14:32 PM 41.9500 -85.0330 92° East 418 481 35,000  Level FlightAware ADS-B
Tue 06:15:17 PM 41.9500 -84.9240 90° East 418 481 35,000  Level FlightAware ADS-B
Tue 06:16:02 PM 41.9500 -84.8050 90° East 419 482 35,000  Level FlightAware ADS-B
Tue 06:16:42 PM 41.9490 -84.6910 91° East 419 482 35,000  Level FlightAware ADS-B
Tue 06:17:22 PM 41.9480 -84.5940 91° East 418 481 35,000  Level FlightAware ADS-B
Tue 06:18:07 PM 41.9470 -84.4750 91° East 417 480 35,000  Level FlightAware ADS-B
Tue 06:18:47 PM 41.9460 -84.3670 91° East 415 478 35,000  Level FlightAware ADS-B
Tue 06:19:32 PM 41.9450 -84.2530 91° East 414 476 35,000  Level FlightAware ADS-B
Tue 06:20:22 PM 41.9440 -84.1280 91° East 413 475 35,000  Level FlightAware ADS-B
Tue 06:21:07 PM 41.9420 -84.0110 91° East 411 473 35,000  Level FlightAware ADS-B
Tue 06:21:52 PM 41.9410 -83.8920 91° East 411 473 35,000  Level FlightAware ADS-B
Tue 06:22:32 PM 41.9400 -83.7990 91° East 411 473 35,000  Level FlightAware ADS-B
Tue 06:23:07 PM 41.9380 -83.7260 92° East 411 473 35,000  Level FlightAware ADS-B
Tue 06:24:07 PM 41.9360 -83.5850 91° East 412 474 35,000  Level FlightAware ADS-B
Tue 06:24:52 PM 41.9340 -83.4570 91° East 414 476 35,000  Level FlightAware ADS-B
Tue 06:25:27 PM 41.9340 -83.3550 90° East 414 476 35,000  Level FlightAware ADS-B
Tue 06:26:17 PM 41.9340 -83.2300 90° East 415 478 35,000  Level FlightAware ADS-B
Tue 06:26:52 PM 41.9330 -83.1490 91° East 415 478 35,000  Level FlightAware ADS-B
Tue 06:27:57 PM 41.9320 -82.9790 90° East 415 478 35,000  Level FlightAware ADS-B
Tue 06:28:52 PM 41.9310 -82.8490 91° East 415 478 35,000  Level FlightAware ADS-B
Tue 06:29:27 PM 41.9300 -82.7290 91° East 415 478 35,000  Level FlightAware ADS-B
Tue 06:30:12 PM 41.9290 -82.6150 91° East 415 478 35,000  Level FlightAware ADS-B
Tue 06:30:47 PM 41.9280 -82.5270 91° East 416 479 35,000  Level FlightAware ADS-B
Tue 06:31:32 PM 41.9270 -82.4410 91° East 417 480 35,000  Level FlightAware ADS-B
Tue 06:32:32 PM 41.9240 -82.2510 91° East 418 481 35,000  Level FlightAware ADS-B
Tue 06:33:12 PM 41.9230 -82.1460 91° East 419 482 35,000  Level FlightAware ADS-B
Tue 06:33:57 PM 41.9210 -82.0300 91° East 421 484 35,000  Level FlightAware ADS-B
Tue 06:34:42 PM 41.9190 -81.9170 91° East 422 486 35,000  Level FlightAware ADS-B
Tue 06:35:17 PM 41.9170 -81.8210 92° East 423 487 35,000  Level FlightAware ADS-B
Tue 06:36:07 PM 41.9060 -81.6960 97° East 424 488 35,000  Level FlightAware ADS-B
Tue 06:36:47 PM 41.8960 -81.5890 97° East 427 491 35,000  Level FlightAware ADS-B
Tue 06:37:27 PM 41.8860 -81.4790 97° East 429 494 35,000  Level FlightAware ADS-B
Tue 06:38:12 PM 41.8760 -81.3640 97° East 430 495 35,000  Level FlightAware ADS-B
Tue 06:38:52 PM 41.8660 -81.2570 97° East 430 495 35,000  Level FlightAware ADS-B
Tue 06:39:37 PM 41.8550 -81.1410 97° East 428 493 35,000  Level FlightAware ADS-B
Tue 06:40:12 PM 41.8460 -81.0480 97° East 428 493 35,000  Level FlightAware ADS-B
Tue 06:40:57 PM 41.8350 -80.9280 97° East 422 486 35,000  Level FlightAware ADS-B
Tue 06:41:57 PM 41.8210 -80.7860 97° East 405 466 35,000  Level FlightAware ADS-B
Tue 06:42:37 PM 41.8110 -80.6860 98° East 404 465 35,000  Level FlightAware ADS-B
Tue 06:43:17 PM 41.8030 -80.5960 97° East 402 463 35,000  Level FlightAware ADS-B
Tue 06:44:02 PM 41.7910 -80.4790 98° East 401 461 35,000  Level FlightAware ADS-B
Tue 06:44:42 PM 41.7810 -80.3800 98° East 399 459 35,000  Level FlightAware ADS-B
Tue 06:45:27 PM 41.7700 -80.2700 98° East 399 459 35,000  Level FlightAware ADS-B
Tue 06:46:07 PM 41.7600 -80.1740 98° East 399 459 35,000  Level FlightAware ADS-B
Tue 06:46:47 PM 41.7510 -80.0790 97° East 398 458 35,000  Level FlightAware ADS-B
Tue 06:47:32 PM 41.7390 -79.9670 98° East 400 460 35,000  Level FlightAware ADS-B
Tue 06:48:12 PM 41.7270 -79.8560 98° East 405 466 35,000  Level FlightAware ADS-B
Tue 06:48:52 PM 41.7170 -79.7590 98° East 406 467 35,000  Level FlightAware ADS-B
Tue 06:49:32 PM 41.7070 -79.6610 98° East 406 467 35,000  Level FlightAware ADS-B
Tue 06:50:17 PM 41.6950 -79.5530 98° East 405 466 35,000  Level FlightAware ADS-B
Tue 06:51:02 PM 41.6820 -79.4350 98° East 403 464 35,000  Level FlightAware ADS-B
Tue 06:51:42 PM 41.6730 -79.3470 98° East 415 478 35,000  Level FlightAware ADS-B
Tue 06:52:22 PM 41.6620 -79.2480 98° East 419 482 35,000  Level FlightAware ADS-B
Tue 06:53:02 PM 41.6510 -79.1510 99° East 420 483 35,000  Level FlightAware ADS-B
Tue 06:53:47 PM 41.6370 -79.0270 99° East 421 484 35,000  Level FlightAware ADS-B
Tue 06:54:32 PM 41.6240 -78.9090 98° East 422 486 35,000  Level FlightAware ADS-B
Tue 06:55:12 PM 41.6110 -78.8000 99° East 427 491 35,000  Level FlightAware ADS-B
Tue 06:55:52 PM 41.5980 -78.6890 99° East 429 494 35,000  Level FlightAware ADS-B
Tue 06:56:37 PM 41.5850 -78.5750 99° East 432 497 35,000  Level FlightAware ADS-B
Tue 06:57:17 PM 41.5730 -78.4680 98° East 433 498 35,000 -80 Level FlightAware ADS-B
Tue 06:57:52 PM 41.5610 -78.3730 100° East 434 499 34,900 -635 Descending FlightAware ADS-B
Tue 06:58:42 PM 41.5470 -78.2520 99° East 435 501 34,100 -933 Descending FlightAware ADS-B
Tue 06:59:22 PM 41.5340 -78.1480 99° East 437 503 33,500 -1,482 Descending FlightAware ADS-B
Tue 07:00:07 PM 41.5200 -78.0270 99° East 437 503 32,000 -1,875 Descending FlightAware ADS-B
Tue 07:00:42 PM 41.5100 -77.9460 99° East 437 503 31,000 -545 Descending FlightAware ADS-B
Tue 07:01:57 PM 41.4800 -77.7390 101° East 440 506 31,000  Level FlightAware ADS-B
Tue 07:02:42 PM 41.4630 -77.6200 101° East 441 507 31,000  Level FlightAware ADS-B
Tue 07:03:12 PM 41.4500 -77.5330 101° East 441 507 31,000  Level FlightAware ADS-B
Tue 07:04:02 PM 41.4320 -77.4070 101° East 441 507 31,000  Level FlightAware ADS-B
Tue 07:04:57 PM 41.4120 -77.2660 101° East 441 507 31,000  Level FlightAware ADS-B
Tue 07:05:42 PM 41.3910 -77.1240 101° East 440 506 31,000  Level FlightAware ADS-B
Tue 07:06:37 PM 41.3710 -76.9940 102° East 439 505 31,000  Level FlightAware ADS-B
Tue 07:07:22 PM 41.3550 -76.8830 101° East 437 503 31,000 -207 Level FlightAware ADS-B
Tue 07:07:35 PM 41.3455 -76.8217 102° East 438 504 30,800 -1,034 Descending FlightAware ADS-B
Tue 07:07:51 PM 41.3389 -76.7813 102° East 437 503 30,500 -2,679 Descending FlightAware ADS-B
Tue 07:08:31 PM 41.3126 -76.6776 109° East 436 502 28,300 -2,917 Descending FlightAware ADS-B
Tue 07:09:03 PM 41.2912 -76.5979 110° East 437 503 27,000 -2,320 Descending FlightAware ADS-B
Tue 07:09:46 PM 41.2622 -76.4897 110° East 426 490 25,400 -2,370 Descending FlightAware ADS-B
Tue 07:10:24 PM 41.2376 -76.3980 110° East 415 478 23,800 -2,471 Descending FlightAware ADS-B
Tue 07:11:11 PM 41.2078 -76.2873 110° East 409 471 21,900 -2,400 Descending FlightAware ADS-B
Tue 07:11:49 PM 41.1842 -76.2010 110° East 397 457 20,400 -2,351 Descending FlightAware ADS-B
Tue 07:12:25 PM 41.1620 -76.1202 110° East 389 448 19,000 -2,028 Descending FlightAware ADS-B
Tue 07:13:00 PM 41.1404 -76.0408 110° East 382 440 18,000 -909 Descending FlightAware ADS-B
Tue 07:13:31 PM 41.1221 -75.9743 110° East 384 442 18,000  Level FlightAware ADS-B
Tue 07:14:03 PM 41.1026 -75.9035 110° East 382 440 18,000 -381 Level FlightAware ADS-B
Tue 07:14:34 PM 41.0835 -75.8345 110° East 383 441 17,600 -1,238 Descending FlightAware ADS-B
Tue 07:15:06 PM 41.0641 -75.7639 110° East 384 442 16,700 -1,742 Descending FlightAware ADS-B
Tue 07:15:36 PM 41.0458 -75.6979 110° East 377 434 15,800 -1,839 Descending FlightAware ADS-B
Tue 07:16:08 PM 41.0272 -75.6308 110° East 374 430 14,800 -1,969 Descending FlightAware ADS-B
Tue 07:16:40 PM 41.0079 -75.5622 110° East 366 421 13,700 -2,226 Descending FlightAware ADS-B
Tue 07:17:10 PM 40.9904 -75.4993 110° East 361 415 12,500 -2,108 Descending FlightAware ADS-B
Tue 07:17:54 PM 40.9655 -75.4105 110° East 353 406 11,100 -1,423 Descending FlightAware ADS-B
Tue 07:18:47 PM 40.9390 -75.3150 110° East 310 357 10,200 -857 Descending FlightAware ADS-B
Tue 07:19:04 PM 40.9295 -75.2823 111° Southeast 334 384 10,100 -686 Descending FlightAware ADS-B
Tue 07:19:22 PM 40.9212 -75.2528 110° East 334 384 9,800 -1,019 Descending FlightAware ADS-B
Tue 07:19:57 PM 40.9053 -75.1963 110° East 334 384 9,200 -1,091 Descending FlightAware ADS-B
Tue 07:20:28 PM 40.8913 -75.1472 111° Southeast 334 384 8,600 -1,017 Descending FlightAware ADS-B
Tue 07:20:56 PM 40.8789 -75.1036 111° Southeast 272 313 8,200 -964 Descending FlightAware ADS-B
Tue 07:21:24 PM 40.8670 -75.0616 111° Southeast 266 306 7,700 -1,077 Descending FlightAware ADS-B
Tue 07:21:35 PM 40.8626 -75.0446 109° East 267 307 7,500 -1,125 Descending FlightAware ADS-B
Tue 07:21:40 PM 40.8612 -75.0358 102° East 266 306 7,400 -1,125 Descending FlightAware ADS-B
Tue 07:21:51 PM 40.8597 -75.0187 97° East 266 306 7,200 -1,000 Descending FlightAware ADS-B
Tue 07:22:16 PM 40.8563 -74.9781 96° East 265 305 6,800 -545 Descending FlightAware ADS-B
Tue 07:22:35 PM 40.8539 -74.9481 96° East 262 302 6,800  Level FlightAware ADS-B
Tue 07:22:54 PM 40.8513 -74.9180 97° East 262 302 6,800 171 Level FlightAware ADS-B
Tue 07:23:10 PM 40.8492 -74.8929 96° East 260 299 6,900  Climbing FlightAware ADS-B
Tue 07:23:26 PM 40.8472 -74.8679 96° East 262 302 6,800 -188 Descending FlightAware ADS-B
Tue 07:23:42 PM 40.8452 -74.8424 96° East 260 299 6,800  Level FlightAware ADS-B
Tue 07:23:58 PM 40.8431 -74.8171 96° East 261 300 6,800 -632 Level FlightAware ADS-B
Tue 07:24:20 PM 40.8403 -74.7825 96° East 263 303 6,400 -759 Descending FlightAware ADS-B
Tue 07:25:17 PM 40.8560 -74.7030 75° East 264 304 5,800 -483 Descending FlightAware ADS-B
Tue 07:25:47 PM 40.8810 -74.6670 47° Northeast 263 303 5,700 -655 Descending FlightAware ADS-B
Tue 07:26:12 PM 40.9000 -74.6320 54° Northeast 264 304 5,200 -982 Descending FlightAware ADS-B
Tue 07:26:42 PM 40.9210 -74.5950 53° Northeast 262 302 4,800 -436 Descending FlightAware ADS-B
Tue 07:27:07 PM 40.9370 -74.5650 55° Northeast 259 298 4,800  Level FlightAware ADS-B
Tue 07:27:37 PM 40.9600 -74.5250 53° Northeast 260 299 4,800  Level FlightAware ADS-B
Tue 07:28:07 PM 40.9790 -74.4910 53° Northeast 260 299 4,800  Level FlightAware ADS-B
Tue 07:28:42 PM 40.9860 -74.4400 80° East 232 267 4,800  Level FlightAware ADS-B
Tue 07:29:17 PM 40.9850 -74.3940 92° East 213 245 4,800  Level FlightAware ADS-B
Tue 07:29:34 PM 40.9762 -74.3714 117° Southeast 213 245 4,800  Level FlightAware ADS-B
Tue 07:29:51 PM 40.9683 -74.3519 118° Southeast 211 243 4,800  Level FlightAware ADS-B
Tue 07:30:12 PM 40.9587 -74.3286 119° Southeast 211 243 4,800 -324 Level FlightAware ADS-B
Tue 07:30:28 PM 40.9513 -74.3106 119° Southeast 214 246 4,600 -938 Descending FlightAware ADS-B
Tue 07:30:44 PM 40.9433 -74.2909 118° Southeast 217 250 4,300 -1,125 Descending FlightAware ADS-B
Tue 07:31:00 PM 40.9360 -74.2733 119° Southeast 215 247 4,000 -968 Descending FlightAware ADS-B
Tue 07:31:15 PM 40.9287 -74.2557 119° Southeast 213 245 3,800 -387 Descending FlightAware ADS-B
Tue 07:31:31 PM 40.9215 -74.2381 118° Southeast 208 239 3,800  Level FlightAware ADS-B
Tue 07:31:46 PM 40.9145 -74.2211 119° Southeast 207 238 3,800  Level FlightAware ADS-B
Tue 07:32:03 PM 40.9068 -74.2022 118° Southeast 207 238 3,800 188 Level FlightAware ADS-B
Tue 07:32:18 PM 40.8999 -74.1854 119° Southeast 203 234 3,900  Climbing FlightAware ADS-B
Tue 07:32:34 PM 40.8933 -74.1695 119° Southeast 191 220 3,800 -194 Descending FlightAware ADS-B
Tue 07:32:49 PM 40.8871 -74.1545 119° Southeast 183 211 3,800  Level FlightAware ADS-B
Tue 07:32:56 PM 40.8844 -74.1477 118° Southeast 182 209 3,800  Level FlightAware ADS-B
Tue 07:33:00 PM 40.8830 -74.1428 111° Southeast 181 208 3,800  Level FlightAware ADS-B
Tue 07:33:08 PM 40.8810 -74.1344 107° East 180 207 3,800 -375 Level FlightAware ADS-B
Tue 07:33:32 PM 40.8751 -74.1093 107° East 179 206 3,600 -750 Descending FlightAware ADS-B
Tue 07:33:48 PM 40.8712 -74.0927 107° East 180 207 3,300 -1,091 Descending FlightAware ADS-B
Tue 07:33:54 PM 40.8694 -74.0866 111° Southeast 179 206 3,200 -667 Descending FlightAware ADS-B
Tue 07:33:57 PM 40.8681 -74.0836 120° Southeast 178 205 3,200 -750 Level FlightAware ADS-B
Tue 07:34:02 PM 40.8658 -74.0800 130° Southeast 177 204 3,100 -1,200 Descending FlightAware ADS-B
Tue 07:34:07 PM 40.8624 -74.0765 142° Southeast 176 203 3,000 -923 Descending FlightAware ADS-B
Tue 07:34:15 PM 40.8560 -74.0735 160° South 177 204 2,900 -500 Descending FlightAware ADS-B
Tue 07:34:19 PM 40.8531 -74.0731 174° South 179 206 2,900 -600 Level FlightAware ADS-B
Tue 07:34:25 PM 40.8476 -74.0729 178° South 181 208 2,800 -600 Descending FlightAware ADS-B
Tue 07:34:29 PM 40.8444 -74.0730 181° South 180 207 2,800  Level FlightAware ADS-B
Tue 07:34:39 PM 40.8366 -74.0746 189° South 182 209 2,800 -400 Level FlightAware ADS-B
Tue 07:34:44 PM 40.8320 -74.0764 196° South 186 214 2,700 -1,091 Descending FlightAware ADS-B
Tue 07:34:50 PM 40.8268 -74.0791 201° Southwest 188 216 2,600 -923 Descending FlightAware ADS-B
Tue 07:34:57 PM 40.8218 -74.0821 204° Southwest 190 219 2,500 -947 Descending FlightAware ADS-B
Tue 07:35:28 PM 40.7971 -74.0983 206° Southwest 189 217 2,000 -955 Descending FlightAware ADS-B
Tue 07:35:41 PM 40.7874 -74.1044 205° Southwest 189 217 1,800 -1,000 Descending FlightAware ADS-B
Tue 07:35:58 PM 40.7740 -74.1129 206° Southwest 188 216 1,500 -1,125 Descending FlightAware ADS-B
Tue 07:36:13 PM 40.7623 -74.1203 206° Southwest 185 213 1,200 -1,071 Descending FlightAware ADS-B
Tue 07:36:26 PM 40.7520 -74.1270 206° Southwest 176 203 1,000 -800 Descending FlightAware ADS-B
Tue 07:36:43 PM 40.7402 -74.1345 206° Southwest 161 185 800 -706 Descending FlightAware ADS-B
Tue 07:37:00 PM 40.7298 -74.1411 206° Southwest 152 175 600 -706 Descending FlightAware ADS-B

Login

Don't have an account? Register now (free) for customized features, flight alerts, and more!